createdAt,value
2023-04-02T00:00:36.696Z,100.00
2023-04-02T00:03:07.447Z,100.00
2023-04-02T00:05:37.243Z,100.00
2023-04-02T00:08:06.162Z,100.00
2023-04-02T00:10:52.960Z,100.00
2023-04-02T00:13:28.815Z,100.00
2023-04-02T00:15:57.402Z,100.00
2023-04-02T00:18:25.658Z,100.00
2023-04-02T00:21:02.985Z,100.00
2023-04-02T00:23:29.545Z,100.00
2023-04-02T00:25:55.966Z,100.00
2023-04-02T00:28:24.074Z,100.00
2023-04-02T00:30:54.941Z,100.00
2023-04-02T00:33:25.641Z,100.00
2023-04-02T00:35:54.081Z,100.00
2023-04-02T00:38:31.503Z,100.00
2023-04-02T00:41:07.145Z,100.00
2023-04-02T00:43:38.119Z,100.00
2023-04-02T00:46:11.904Z,100.00
2023-04-02T00:48:50.567Z,100.00
2023-04-02T00:51:20.130Z,100.00
2023-04-02T00:53:49.970Z,100.00
2023-04-02T00:56:25.954Z,100.00
2023-04-02T00:58:55.157Z,100.00
2023-04-02T01:01:26.177Z,100.00
2023-04-02T01:03:57.695Z,100.00
2023-04-02T01:06:37.319Z,100.00
2023-04-02T01:09:20.618Z,100.00
2023-04-02T01:11:59.282Z,100.00
2023-04-02T01:14:45.266Z,100.00
2023-04-02T01:17:38.686Z,100.00
2023-04-02T01:20:30.017Z,100.00
2023-04-02T01:23:01.513Z,100.00
2023-04-02T01:25:57.716Z,100.00
2023-04-02T01:29:06.258Z,100.00
2023-04-02T01:31:33.681Z,100.00
2023-04-02T01:34:02.140Z,100.00
2023-04-02T01:37:02.425Z,100.00
2023-04-02T01:39:31.860Z,100.00
2023-04-02T01:42:07.819Z,100.00
2023-04-02T01:44:48.965Z,100.00
2023-04-02T01:47:18.407Z,100.00
2023-04-02T01:49:46.095Z,100.00
2023-04-02T01:52:17.863Z,100.00
2023-04-02T01:54:45.959Z,100.00
2023-04-02T01:57:13.083Z,100.00
2023-04-02T01:59:40.063Z,100.00
2023-04-02T02:02:12.543Z,100.00
2023-04-02T02:04:40.899Z,100.00
2023-04-02T02:07:16.409Z,100.00
2023-04-02T02:09:48.802Z,100.00
2023-04-02T02:12:15.903Z,100.00
2023-04-02T02:14:50.011Z,100.00
2023-04-02T02:17:19.907Z,100.00
2023-04-02T02:19:49.319Z,100.00
2023-04-02T02:22:28.275Z,100.00
2023-04-02T02:24:57.403Z,100.00
2023-04-02T02:27:23.809Z,100.00
2023-04-02T02:30:02.274Z,100.00
2023-04-02T02:32:31.894Z,100.00
2023-04-02T02:35:07.860Z,100.00
2023-04-02T02:37:43.324Z,100.00
2023-04-02T02:40:23.845Z,100.00
2023-04-02T02:43:03.942Z,100.00
2023-04-02T02:45:36.833Z,100.00
2023-04-02T02:48:09.713Z,100.00
2023-04-02T02:50:37.017Z,100.00
2023-04-02T02:53:22.667Z,100.00
2023-04-02T02:55:53.907Z,100.00
2023-04-02T02:58:27.833Z,100.00
2023-04-02T03:01:03.382Z,100.00
2023-04-02T03:03:33.790Z,100.00
2023-04-02T03:06:05.614Z,100.00
2023-04-02T03:08:37.597Z,100.00
2023-04-02T03:11:11.747Z,100.00
2023-04-02T03:13:41.151Z,100.00
2023-04-02T03:16:23.697Z,100.00
2023-04-02T03:19:05.379Z,100.00
2023-04-02T03:21:46.253Z,100.00
2023-04-02T03:24:17.292Z,100.00
2023-04-02T03:27:09.253Z,100.00
2023-04-02T03:29:38.749Z,100.00
2023-04-02T03:32:25.409Z,100.00
2023-04-02T03:34:59.584Z,100.00
2023-04-02T03:37:38.922Z,100.00
2023-04-02T03:40:10.466Z,100.00
2023-04-02T03:42:53.402Z,100.00
2023-04-02T03:45:33.774Z,100.00
2023-04-02T03:48:15.394Z,100.00
2023-04-02T03:50:44.829Z,100.00
2023-04-02T03:53:12.464Z,100.00
2023-04-02T03:55:41.389Z,100.00
2023-04-02T03:58:18.802Z,100.00
2023-04-02T04:01:02.577Z,100.00
2023-04-02T04:03:49.813Z,100.00
2023-04-02T04:06:35.028Z,100.00
2023-04-02T04:09:24.510Z,100.00
2023-04-02T04:12:09.045Z,100.00
2023-04-02T04:14:44.089Z,100.00
2023-04-02T04:17:26.366Z,100.00
2023-04-02T04:20:01.672Z,100.00
2023-04-02T04:22:29.850Z,100.00
2023-04-02T04:25:06.011Z,100.00
2023-04-02T04:27:48.207Z,100.00
2023-04-02T04:30:25.186Z,100.00
2023-04-02T04:33:12.469Z,100.00
2023-04-02T04:35:46.919Z,100.00
2023-04-02T04:38:25.729Z,100.00
2023-04-02T04:40:56.413Z,100.00
2023-04-02T04:43:44.831Z,100.00
2023-04-02T04:46:28.291Z,100.00
2023-04-02T04:49:08.459Z,100.00
2023-04-02T04:52:07.219Z,100.00
2023-04-02T04:54:39.082Z,100.00
2023-04-02T04:57:22.790Z,100.00
2023-04-02T04:59:58.558Z,100.00
2023-04-02T05:02:36.116Z,100.00
2023-04-02T05:05:03.944Z,100.00
2023-04-02T05:07:47.059Z,100.00
2023-04-02T05:10:27.374Z,100.00
2023-04-02T05:13:05.371Z,100.00
2023-04-02T05:15:40.172Z,100.00
2023-04-02T05:18:34.174Z,100.00
2023-04-02T05:21:19.540Z,100.00
2023-04-02T05:24:30.572Z,100.00
2023-04-02T05:27:05.170Z,100.00
2023-04-02T05:29:38.417Z,100.00
2023-04-02T05:32:15.443Z,100.00
2023-04-02T05:34:49.140Z,100.00
2023-04-02T05:37:29.703Z,100.00
2023-04-02T05:40:05.017Z,100.00
2023-04-02T05:42:36.157Z,100.00
2023-04-02T05:45:35.025Z,100.00
2023-04-02T05:48:15.921Z,100.00
2023-04-02T05:50:47.063Z,100.00
2023-04-02T05:53:31.326Z,100.00
2023-04-02T05:55:59.893Z,100.00
2023-04-02T05:58:41.990Z,100.00
2023-04-02T06:01:35.853Z,100.00
2023-04-02T06:04:26.038Z,100.00
2023-04-02T06:06:58.790Z,100.00
2023-04-02T06:09:26.768Z,100.00
2023-04-02T06:12:08.344Z,100.00
2023-04-02T06:14:35.603Z,100.00
2023-04-02T06:17:03.382Z,100.00
2023-04-02T06:19:35.931Z,100.00
2023-04-02T06:22:20.732Z,100.00
2023-04-02T06:24:54.025Z,100.00
2023-04-02T06:27:26.381Z,100.00
2023-04-02T06:29:59.850Z,100.00
2023-04-02T06:32:29.564Z,100.00
2023-04-02T06:34:57.732Z,100.00
2023-04-02T06:37:27.260Z,100.00
2023-04-02T06:40:00.643Z,100.00
2023-04-02T06:42:39.911Z,100.00
2023-04-02T06:45:40.364Z,100.00
2023-04-02T06:48:19.242Z,100.00
2023-04-02T06:51:09.585Z,100.00
2023-04-02T06:53:41.702Z,100.00
2023-04-02T06:56:21.211Z,100.00
2023-04-02T06:58:50.548Z,100.00
2023-04-02T07:01:25.359Z,100.00
2023-04-02T07:03:52.289Z,100.00
2023-04-02T07:06:24.483Z,100.00
2023-04-02T07:08:53.453Z,100.00
2023-04-02T07:11:24.522Z,100.00
2023-04-02T07:13:53.766Z,100.00
2023-04-02T07:16:25.170Z,100.00
2023-04-02T07:18:53.442Z,100.00
2023-04-02T07:21:20.022Z,100.00
2023-04-02T07:23:49.809Z,100.00
2023-04-02T07:26:22.475Z,100.00
2023-04-02T07:28:49.496Z,100.00
2023-04-02T07:31:20.353Z,100.00
2023-04-02T07:33:47.864Z,100.00
2023-04-02T07:36:23.568Z,100.00
2023-04-02T07:38:54.936Z,100.00
2023-04-02T07:41:21.510Z,100.00
2023-04-02T07:43:50.222Z,100.00
2023-04-02T07:46:16.958Z,100.00
2023-04-02T07:48:44.379Z,100.00
2023-04-02T07:51:25.332Z,100.00
2023-04-02T07:53:52.442Z,100.00
2023-04-02T07:56:19.737Z,100.00
2023-04-02T07:58:46.873Z,100.00
2023-04-02T08:01:23.113Z,100.00
2023-04-02T08:03:51.299Z,100.00
2023-04-02T08:06:23.957Z,100.00
2023-04-02T08:08:50.897Z,100.00
2023-04-02T08:11:17.504Z,100.00
2023-04-02T08:13:44.254Z,100.00
2023-04-02T08:16:15.605Z,100.00
2023-04-02T08:18:42.190Z,100.00
2023-04-02T08:21:10.432Z,100.00
2023-04-02T08:23:37.558Z,100.00
2023-04-02T08:26:05.830Z,100.00
2023-04-02T08:28:32.329Z,100.00
2023-04-02T08:30:58.822Z,100.00
2023-04-02T08:33:25.463Z,100.00
2023-04-02T08:35:52.061Z,100.00
2023-04-02T08:38:20.890Z,100.00
2023-04-02T08:40:54.140Z,100.00
2023-04-02T08:43:39.042Z,100.00
2023-04-02T08:46:47.515Z,100.00
2023-04-02T08:49:16.715Z,100.00
2023-04-02T08:51:45.947Z,100.00
2023-04-02T08:54:21.650Z,100.00
2023-04-02T08:57:18.600Z,100.00
2023-04-02T08:59:45.548Z,100.00
2023-04-02T09:02:24.535Z,100.00
2023-04-02T09:04:51.918Z,100.00
2023-04-02T09:07:18.573Z,100.00
2023-04-02T09:09:48.542Z,100.00
2023-04-02T09:12:17.741Z,100.00
2023-04-02T09:15:15.506Z,100.00
2023-04-02T09:17:53.116Z,100.00
2023-04-02T09:20:26.055Z,100.00
2023-04-02T09:22:53.785Z,100.00
2023-04-02T09:25:23.850Z,100.00
2023-04-02T09:27:54.686Z,100.00
2023-04-02T09:30:24.303Z,100.00
2023-04-02T09:32:55.152Z,100.00
2023-04-02T09:35:26.555Z,100.00
2023-04-02T09:38:28.715Z,100.00
2023-04-02T09:40:58.300Z,100.00
2023-04-02T09:43:38.778Z,100.00
2023-04-02T09:46:12.859Z,100.00
2023-04-02T09:49:01.005Z,100.00
2023-04-02T09:51:32.810Z,100.00
2023-04-02T09:54:02.499Z,100.00
2023-04-02T09:56:34.301Z,100.00
2023-04-02T09:59:12.681Z,100.00
2023-04-02T10:01:56.674Z,100.00
2023-04-02T10:04:43.731Z,100.00
2023-04-02T10:07:32.155Z,100.00
2023-04-02T10:10:00.751Z,100.00
2023-04-02T10:12:35.013Z,100.00
2023-04-02T10:15:03.952Z,100.00
2023-04-02T10:17:37.594Z,100.00
2023-04-02T10:20:18.583Z,99.61
2023-04-02T10:22:45.848Z,98.54
2023-04-02T10:25:16.855Z,98.23
2023-04-02T10:27:49.525Z,99.03
2023-04-02T10:30:24.599Z,97.36
2023-04-02T10:33:27.093Z,100.00
2023-04-02T10:36:08.965Z,91.66
2023-04-02T10:38:41.460Z,94.60
2023-04-02T10:41:30.829Z,96.73
2023-04-02T10:44:20.776Z,95.79
2023-04-02T10:46:47.411Z,94.67
2023-04-02T10:49:21.692Z,94.51
2023-04-02T10:51:58.501Z,96.85
2023-04-02T10:54:37.913Z,96.68
2023-04-02T10:57:12.374Z,92.21
2023-04-02T10:59:45.036Z,90.04
2023-04-02T11:02:47.124Z,93.35
2023-04-02T11:05:37.729Z,89.31
2023-04-02T11:08:18.622Z,88.04
2023-04-02T11:10:49.407Z,83.57
2023-04-02T11:13:57.936Z,88.82
2023-04-02T11:16:25.409Z,83.12
2023-04-02T11:19:14.752Z,85.90
2023-04-02T11:21:58.558Z,83.59
2023-04-02T11:24:31.712Z,79.65
2023-04-02T11:27:04.122Z,78.76
2023-04-02T11:29:32.098Z,72.42
2023-04-02T11:32:21.210Z,75.55
2023-04-02T11:34:56.483Z,68.65
2023-04-02T11:37:45.787Z,65.94
2023-04-02T11:40:12.299Z,65.55
2023-04-02T11:42:40.535Z,66.08
2023-04-02T11:45:22.391Z,70.78
2023-04-02T11:48:00.993Z,70.15
2023-04-02T11:50:30.661Z,66.42
2023-04-02T11:53:21.813Z,69.26
2023-04-02T11:55:57.589Z,67.37
2023-04-02T11:58:57.626Z,67.19
2023-04-02T12:01:54.289Z,68.64
2023-04-02T12:04:30.058Z,63.45
2023-04-02T12:07:11.882Z,64.40
2023-04-02T12:09:52.386Z,64.90
2023-04-02T12:12:24.653Z,62.78
2023-04-02T12:14:53.091Z,61.09
2023-04-02T12:17:35.248Z,64.65
2023-04-02T12:20:07.638Z,63.93
2023-04-02T12:22:37.677Z,62.63
2023-04-02T12:25:20.286Z,62.22
2023-04-02T12:27:47.039Z,61.67
2023-04-02T12:30:20.829Z,62.63
2023-04-02T12:32:47.487Z,60.88
2023-04-02T12:35:33.842Z,64.88
2023-04-02T12:38:00.553Z,60.58
2023-04-02T12:40:28.222Z,60.33
2023-04-02T12:42:54.737Z,60.61
2023-04-02T12:45:30.981Z,64.28
2023-04-02T12:47:58.046Z,61.09
2023-04-02T12:50:24.788Z,59.70
2023-04-02T12:52:53.228Z,60.65
2023-04-02T12:55:23.306Z,59.49
2023-04-02T12:57:55.761Z,59.76
2023-04-02T13:00:22.215Z,58.84
2023-04-02T13:03:15.551Z,58.54
2023-04-02T13:05:48.773Z,58.27
2023-04-02T13:08:40.468Z,57.10
2023-04-02T13:11:07.586Z,56.91
2023-04-02T13:13:36.772Z,56.07
2023-04-02T13:16:17.425Z,57.10
2023-04-02T13:18:46.910Z,56.59
2023-04-02T13:21:16.461Z,56.88
2023-04-02T13:23:43.638Z,55.05
2023-04-02T13:26:18.076Z,55.89
2023-04-02T13:29:03.379Z,53.62
2023-04-02T13:31:31.848Z,53.55
2023-04-02T13:33:59.008Z,52.96
2023-04-02T13:36:26.097Z,52.37
2023-04-02T13:38:52.585Z,50.76
2023-04-02T13:41:22.592Z,50.87
2023-04-02T13:43:53.025Z,50.71
2023-04-02T13:46:25.706Z,51.37
2023-04-02T13:48:54.737Z,50.85
2023-04-02T13:51:24.841Z,50.85
2023-04-02T13:53:56.748Z,50.34
2023-04-02T13:56:42.080Z,48.85
2023-04-02T13:59:29.005Z,48.67
2023-04-02T14:02:19.385Z,47.34
2023-04-02T14:05:22.993Z,48.68
2023-04-02T14:08:34.231Z,45.39
2023-04-02T14:11:43.540Z,47.65
2023-04-02T14:15:05.067Z,48.19
2023-04-02T14:18:06.925Z,47.47
2023-04-02T14:21:22.857Z,48.44
2023-04-02T14:24:48.053Z,47.79
2023-04-02T14:28:03.284Z,47.43
2023-04-02T14:30:58.238Z,48.20
2023-04-02T14:33:47.695Z,48.91
2023-04-02T14:36:40.414Z,46.87
2023-04-02T14:39:48.477Z,45.76
2023-04-02T14:42:51.528Z,46.11
2023-04-02T14:46:00.689Z,45.39
2023-04-02T14:48:56.246Z,43.39
2023-04-02T14:51:51.288Z,45.25
2023-04-02T14:55:03.212Z,40.80
2023-04-02T14:57:52.538Z,43.42
2023-04-02T15:00:49.486Z,42.70
2023-04-02T15:03:49.412Z,42.15
2023-04-02T15:06:45.395Z,42.22
2023-04-02T15:09:37.999Z,42.41
2023-04-02T15:12:30.537Z,41.20
2023-04-02T15:15:41.444Z,42.49
2023-04-02T15:18:28.255Z,42.50
2023-04-02T15:21:21.178Z,42.44
2023-04-02T15:24:40.422Z,41.77
2023-04-02T15:27:49.329Z,42.10
2023-04-02T15:30:40.568Z,42.16
2023-04-02T15:33:27.348Z,41.94
2023-04-02T15:36:48.033Z,41.06
2023-04-02T15:39:47.026Z,41.01
2023-04-02T15:42:41.311Z,39.55
2023-04-02T15:45:50.327Z,40.09
2023-04-02T15:49:14.968Z,40.11
2023-04-02T15:52:34.120Z,41.18
2023-04-02T15:55:41.421Z,41.73
2023-04-02T15:58:55.698Z,41.24
2023-04-02T16:02:28.860Z,39.74
2023-04-02T16:05:46.829Z,40.23
2023-04-02T16:08:43.386Z,38.52
2023-04-02T16:11:31.459Z,39.27
2023-04-02T16:14:26.297Z,37.60
2023-04-02T16:17:39.236Z,39.20
2023-04-02T16:20:36.859Z,38.70
2023-04-02T16:23:34.848Z,38.01
2023-04-02T16:26:47.206Z,37.43
2023-04-02T16:29:55.853Z,37.93
2023-04-02T16:33:22.907Z,38.19
2023-04-02T16:36:30.687Z,36.66
2023-04-02T16:39:23.514Z,37.23
2023-04-02T16:42:25.910Z,35.50
2023-04-02T16:45:24.677Z,34.33
2023-04-02T16:48:16.256Z,33.78
2023-04-02T16:51:24.323Z,32.80
2023-04-02T16:54:20.394Z,33.18
2023-04-02T16:57:17.742Z,32.88
2023-04-02T17:00:10.902Z,32.94
2023-04-02T17:03:09.953Z,32.87
2023-04-02T17:06:11.835Z,32.01
2023-04-02T17:09:38.355Z,32.82
2023-04-02T17:12:39.766Z,31.64
2023-04-02T17:15:28.634Z,33.05
2023-04-02T17:18:21.185Z,32.75
2023-04-02T17:21:13.758Z,31.91
2023-04-02T17:24:15.384Z,32.60
2023-04-02T17:27:16.991Z,32.58
2023-04-02T17:30:19.212Z,32.65
2023-04-02T17:33:17.948Z,34.64
2023-04-02T17:36:07.634Z,35.29
2023-04-02T17:39:08.335Z,36.44
2023-04-02T17:42:14.711Z,37.84
2023-04-02T17:45:32.728Z,39.57
2023-04-02T17:48:28.386Z,40.30
2023-04-02T17:51:32.486Z,41.19
2023-04-02T17:54:34.641Z,42.34
2023-04-02T17:57:44.961Z,43.66
2023-04-02T18:00:44.940Z,45.09
2023-04-02T18:03:40.327Z,44.28
2023-04-02T18:06:49.067Z,45.65
2023-04-02T18:10:03.963Z,47.16
2023-04-02T18:13:16.867Z,46.95
2023-04-02T18:16:26.999Z,47.90
2023-04-02T18:19:22.470Z,47.77
2023-04-02T18:22:26.168Z,48.21
2023-04-02T18:25:31.162Z,49.71
2023-04-02T18:28:54.825Z,50.09
2023-04-02T18:31:47.612Z,50.01
2023-04-02T18:34:53.332Z,51.57
2023-04-02T18:37:46.056Z,51.48
2023-04-02T18:40:51.211Z,52.43
2023-04-02T18:44:08.859Z,52.89
2023-04-02T18:47:04.765Z,53.14
2023-04-02T18:50:12.593Z,54.47
2023-04-02T18:53:10.609Z,54.10
2023-04-02T18:56:04.663Z,54.42
2023-04-02T18:59:46.697Z,55.83
2023-04-02T19:02:50.342Z,55.25
2023-04-02T19:05:49.242Z,55.93
2023-04-02T19:08:48.384Z,56.37
2023-04-02T19:11:35.286Z,56.13
2023-04-02T19:14:22.151Z,57.41
2023-04-02T19:17:15.818Z,57.46
2023-04-02T19:20:11.720Z,58.42
2023-04-02T19:23:16.846Z,58.28
2023-04-02T19:26:11.684Z,58.45
2023-04-02T19:29:28.234Z,59.59
2023-04-02T19:32:31.770Z,59.75
2023-04-02T19:35:26.906Z,59.99
2023-04-02T19:38:50.625Z,60.29
2023-04-02T19:41:48.081Z,61.09
2023-04-02T19:44:37.499Z,60.10
2023-04-02T19:47:24.563Z,60.95
2023-04-02T19:50:11.530Z,61.07
2023-04-02T19:52:58.325Z,60.63
2023-04-02T19:55:46.088Z,61.81
2023-04-02T19:58:34.767Z,62.05
2023-04-02T20:01:21.629Z,63.17
2023-04-02T20:04:08.560Z,63.09
2023-04-02T20:06:55.427Z,62.76
2023-04-02T20:09:42.252Z,63.41
2023-04-02T20:12:29.051Z,64.25
2023-04-02T20:15:15.933Z,63.79
2023-04-02T20:18:03.935Z,63.71
2023-04-02T20:20:50.798Z,63.96
2023-04-02T20:23:37.680Z,65.13
2023-04-02T20:26:24.532Z,64.70
2023-04-02T20:29:11.362Z,65.48
2023-04-02T20:31:58.149Z,65.98
2023-04-02T20:34:44.981Z,65.72
2023-04-02T20:37:31.777Z,66.79
2023-04-02T20:40:18.697Z,65.84
2023-04-02T20:43:05.541Z,66.99
2023-04-02T20:45:56.552Z,67.11
2023-04-02T20:48:44.036Z,67.07
2023-04-02T20:51:30.930Z,67.19
2023-04-02T20:54:17.726Z,66.44
2023-04-02T20:57:04.839Z,66.90
2023-04-02T20:59:51.777Z,68.09
2023-04-02T21:02:38.605Z,67.24
2023-04-02T21:05:25.447Z,68.75
2023-04-02T21:08:12.708Z,68.30
2023-04-02T21:11:04.886Z,68.93
2023-04-02T21:13:51.778Z,69.13
2023-04-02T21:16:39.779Z,69.04
2023-04-02T21:19:26.804Z,69.26
2023-04-02T21:22:13.635Z,69.93
2023-04-02T21:25:00.426Z,70.18
2023-04-02T21:27:47.235Z,69.44
2023-04-02T21:30:34.146Z,70.02
2023-04-02T21:33:20.934Z,69.86
2023-04-02T21:36:12.850Z,70.47
2023-04-02T21:39:04.324Z,72.41
2023-04-02T21:41:52.479Z,70.39
2023-04-02T21:44:39.273Z,70.49
2023-04-02T21:47:26.076Z,70.72
2023-04-02T21:50:12.920Z,70.79
2023-04-02T21:52:59.734Z,72.00
2023-04-02T21:55:46.515Z,71.92
2023-04-02T21:58:33.363Z,71.42
2023-04-02T22:01:27.235Z,71.37
2023-04-02T22:04:23.576Z,72.11
2023-04-02T22:07:10.459Z,71.96
2023-04-02T22:09:57.205Z,73.10
2023-04-02T22:12:43.975Z,73.19
2023-04-02T22:15:34.022Z,73.12
2023-04-02T22:18:20.896Z,72.77
2023-04-02T22:21:08.561Z,73.45
2023-04-02T22:23:55.682Z,73.80
2023-04-02T22:26:43.342Z,73.01
2023-04-02T22:29:30.137Z,73.44
2023-04-02T22:32:16.898Z,74.16
2023-04-02T22:35:03.809Z,74.04
2023-04-02T22:37:50.618Z,74.70
2023-04-02T22:40:37.672Z,74.78
2023-04-02T22:43:24.704Z,74.74
2023-04-02T22:46:13.986Z,74.78
2023-04-02T22:49:00.885Z,74.55
2023-04-02T22:51:47.707Z,75.65
2023-04-02T22:54:34.791Z,75.28
2023-04-02T22:57:21.698Z,75.97
2023-04-02T23:00:12.441Z,75.60
2023-04-02T23:02:59.306Z,75.36
2023-04-02T23:05:58.056Z,76.43
2023-04-02T23:08:45.587Z,75.89
2023-04-02T23:11:32.890Z,75.51
2023-04-02T23:14:21.270Z,75.94
2023-04-02T23:17:08.084Z,76.81
2023-04-02T23:19:54.903Z,76.62
2023-04-02T23:22:41.719Z,76.36
2023-04-02T23:25:28.529Z,76.36
2023-04-02T23:28:15.554Z,76.53
2023-04-02T23:31:04.377Z,77.24
2023-04-02T23:33:52.149Z,77.67
2023-04-02T23:36:39.141Z,77.32
2023-04-02T23:39:25.907Z,77.11
2023-04-02T23:42:12.700Z,77.79
2023-04-02T23:44:59.495Z,78.07
2023-04-02T23:47:46.306Z,78.70
2023-04-02T23:50:33.184Z,77.69
2023-04-02T23:53:19.967Z,78.32
2023-04-02T23:56:07.049Z,78.25
2023-04-02T23:58:53.902Z,78.49
